Terminal Aerodrome Forecast
Issued by NWS

Home | Current Version | Previous Version | Text Only | Print | Product List | Glossary On
Versions: 1 2 3 4 5 6 7 8 9 10 11 12 13 14 15 16 17
605
FTUS43 KEAX 252118 AAA
TAFSTJ
TAF AMD
KSTJ 252118Z 2521/2618 01011KT P6SM VCSH OVC012
      TEMPO 2523/2601 BKN009
     FM260100 31004KT P6SM OVC009
     FM261700 27005KT P6SM BKN020=

USA.gov is the U.S. government's official web portal to all federal, state and local government web resources and services.